sensor_id;sensor_type;location;lat;lon;timestamp;temperature;humidity
70079;DHT22;57451;52.496;13.456;2023-06-22T00:01:25;23.00;59.60
70079;DHT22;57451;52.496;13.456;2023-06-22T00:03:54;23.00;59.00
70079;DHT22;57451;52.496;13.456;2023-06-22T00:06:24;23.00;59.20
70079;DHT22;57451;52.496;13.456;2023-06-22T00:08:56;22.90;59.10
70079;DHT22;57451;52.496;13.456;2023-06-22T00:11:24;22.90;59.60
70079;DHT22;57451;52.496;13.456;2023-06-22T00:13:52;22.80;59.40
70079;DHT22;57451;52.496;13.456;2023-06-22T00:16:20;22.80;60.10
70079;DHT22;57451;52.496;13.456;2023-06-22T00:18:49;22.80;60.10
70079;DHT22;57451;52.496;13.456;2023-06-22T00:21:17;22.80;59.90
70079;DHT22;57451;52.496;13.456;2023-06-22T00:23:50;22.70;59.30
70079;DHT22;57451;52.496;13.456;2023-06-22T00:26:20;22.70;59.70
70079;DHT22;57451;52.496;13.456;2023-06-22T00:28:49;22.70;59.60
70079;DHT22;57451;52.496;13.456;2023-06-22T00:31:17;22.60;59.70
70079;DHT22;57451;52.496;13.456;2023-06-22T00:33:54;22.60;60.30
70079;DHT22;57451;52.496;13.456;2023-06-22T00:36:24;22.60;59.90
70079;DHT22;57451;52.496;13.456;2023-06-22T00:38:52;22.60;60.70
70079;DHT22;57451;52.496;13.456;2023-06-22T00:41:23;22.50;60.00
70079;DHT22;57451;52.496;13.456;2023-06-22T00:43:53;22.50;60.50
70079;DHT22;57451;52.496;13.456;2023-06-22T00:46:21;22.50;60.50
70079;DHT22;57451;52.496;13.456;2023-06-22T00:48:51;22.50;60.20
70079;DHT22;57451;52.496;13.456;2023-06-22T00:51:20;22.40;60.70
70079;DHT22;57451;52.496;13.456;2023-06-22T00:53:51;22.40;60.80
70079;DHT22;57451;52.496;13.456;2023-06-22T00:56:22;22.40;60.80
70079;DHT22;57451;52.496;13.456;2023-06-22T00:58:53;22.40;60.40
70079;DHT22;57451;52.496;13.456;2023-06-22T01:01:23;22.30;60.50
70079;DHT22;57451;52.496;13.456;2023-06-22T01:03:52;22.30;60.60
70079;DHT22;57451;52.496;13.456;2023-06-22T01:06:30;22.30;61.60
70079;DHT22;57451;52.496;13.456;2023-06-22T01:09:10;22.30;61.10
70079;DHT22;57451;52.496;13.456;2023-06-22T01:11:48;22.20;62.00
70079;DHT22;57451;52.496;13.456;2023-06-22T01:14:22;22.20;62.10
70079;DHT22;57451;52.496;13.456;2023-06-22T01:16:57;22.20;61.80
70079;DHT22;57451;52.496;13.456;2023-06-22T01:19:39;22.10;61.50
70079;DHT22;57451;52.496;13.456;2023-06-22T01:22:10;22.10;62.50
70079;DHT22;57451;52.496;13.456;2023-06-22T01:24:51;22.10;61.90
70079;DHT22;57451;52.496;13.456;2023-06-22T01:27:32;22.10;61.50
70079;DHT22;57451;52.496;13.456;2023-06-22T01:30:05;22.10;61.60
70079;DHT22;57451;52.496;13.456;2023-06-22T01:32:37;22.10;62.10
70079;DHT22;57451;52.496;13.456;2023-06-22T01:35:08;22.00;62.20
70079;DHT22;57451;52.496;13.456;2023-06-22T01:37:37;22.00;62.70
70079;DHT22;57451;52.496;13.456;2023-06-22T01:40:08;22.00;62.60
70079;DHT22;57451;52.496;13.456;2023-06-22T01:42:37;22.00;63.50
70079;DHT22;57451;52.496;13.456;2023-06-22T01:45:09;22.00;62.50
70079;DHT22;57451;52.496;13.456;2023-06-22T01:47:39;21.90;63.00
70079;DHT22;57451;52.496;13.456;2023-06-22T01:50:11;21.90;62.80
70079;DHT22;57451;52.496;13.456;2023-06-22T01:52:40;21.90;63.60
70079;DHT22;57451;52.496;13.456;2023-06-22T01:55:08;21.90;62.90
70079;DHT22;57451;52.496;13.456;2023-06-22T01:57:36;21.90;62.80
70079;DHT22;57451;52.496;13.456;2023-06-22T02:00:09;21.90;63.80
70079;DHT22;57451;52.496;13.456;2023-06-22T02:02:52;21.90;63.50
70079;DHT22;57451;52.496;13.456;2023-06-22T02:05:24;21.90;63.10
70079;DHT22;57451;52.496;13.456;2023-06-22T02:08:02;21.80;63.30
70079;DHT22;57451;52.496;13.456;2023-06-22T02:10:32;21.80;64.00
70079;DHT22;57451;52.496;13.456;2023-06-22T02:13:05;21.80;64.00
70079;DHT22;57451;52.496;13.456;2023-06-22T02:15:35;21.80;65.10
70079;DHT22;57451;52.496;13.456;2023-06-22T02:18:04;21.80;64.90
70079;DHT22;57451;52.496;13.456;2023-06-22T02:20:33;21.80;64.30
70079;DHT22;57451;52.496;13.456;2023-06-22T02:23:03;21.80;63.50
70079;DHT22;57451;52.496;13.456;2023-06-22T02:25:35;21.80;64.40
70079;DHT22;57451;52.496;13.456;2023-06-22T02:28:04;21.80;63.80
70079;DHT22;57451;52.496;13.456;2023-06-22T02:30:32;21.80;63.90
70079;DHT22;57451;52.496;13.456;2023-06-22T02:33:01;21.70;63.40
70079;DHT22;57451;52.496;13.456;2023-06-22T02:35:30;21.70;63.90
70079;DHT22;57451;52.496;13.456;2023-06-22T02:38:04;21.70;64.30
70079;DHT22;57451;52.496;13.456;2023-06-22T02:40:32;21.70;65.20
70079;DHT22;57451;52.496;13.456;2023-06-22T02:43:00;21.70;64.90
70079;DHT22;57451;52.496;13.456;2023-06-22T02:45:34;21.70;65.80
70079;DHT22;57451;52.496;13.456;2023-06-22T02:48:05;21.70;65.50
70079;DHT22;57451;52.496;13.456;2023-06-22T02:50:34;21.70;66.10
70079;DHT22;57451;52.496;13.456;2023-06-22T02:53:05;21.70;66.20
70079;DHT22;57451;52.496;13.456;2023-06-22T02:55:37;21.70;65.60
70079;DHT22;57451;52.496;13.456;2023-06-22T02:58:08;21.70;65.70
70079;DHT22;57451;52.496;13.456;2023-06-22T03:00:38;21.70;65.90
70079;DHT22;57451;52.496;13.456;2023-06-22T03:03:12;21.70;66.10
70079;DHT22;57451;52.496;13.456;2023-06-22T03:05:41;21.70;65.80
70079;DHT22;57451;52.496;13.456;2023-06-22T03:08:10;21.70;66.30
70079;DHT22;57451;52.496;13.456;2023-06-22T03:10:41;21.70;66.40
70079;DHT22;57451;52.496;13.456;2023-06-22T03:13:09;21.70;66.40
70079;DHT22;57451;52.496;13.456;2023-06-22T03:15:39;21.70;65.70
70079;DHT22;57451;52.496;13.456;2023-06-22T03:18:07;21.70;65.70
70079;DHT22;57451;52.496;13.456;2023-06-22T03:24:02;21.70;65.80
70079;DHT22;57451;52.496;13.456;2023-06-22T03:26:30;21.70;65.10
70079;DHT22;57451;52.496;13.456;2023-06-22T03:28:58;21.70;65.60
70079;DHT22;57451;52.496;13.456;2023-06-22T03:31:30;21.70;65.40
70079;DHT22;57451;52.496;13.456;2023-06-22T03:33:59;21.60;65.50
70079;DHT22;57451;52.496;13.456;2023-06-22T03:36:27;21.60;65.60
70079;DHT22;57451;52.496;13.456;2023-06-22T03:38:55;21.60;65.50
70079;DHT22;57451;52.496;13.456;2023-06-22T03:41:25;21.60;65.40
70079;DHT22;57451;52.496;13.456;2023-06-22T03:43:53;21.60;65.10
70079;DHT22;57451;52.496;13.456;2023-06-22T03:46:24;21.50;65.10
70079;DHT22;57451;52.496;13.456;2023-06-22T03:48:52;21.60;65.10
70079;DHT22;57451;52.496;13.456;2023-06-22T03:51:20;21.50;64.80
70079;DHT22;57451;52.496;13.456;2023-06-22T03:53:48;21.50;64.40
70079;DHT22;57451;52.496;13.456;2023-06-22T03:56:15;21.50;64.40
70079;DHT22;57451;52.496;13.456;2023-06-22T03:58:51;21.50;64.00
70079;DHT22;57451;52.496;13.456;2023-06-22T04:01:19;21.50;63.60
70079;DHT22;57451;52.496;13.456;2023-06-22T04:03:49;21.50;63.80
70079;DHT22;57451;52.496;13.456;2023-06-22T04:06:17;21.50;63.80
70079;DHT22;57451;52.496;13.456;2023-06-22T04:08:45;21.50;63.80
70079;DHT22;57451;52.496;13.456;2023-06-22T04:11:19;21.50;64.00
70079;DHT22;57451;52.496;13.456;2023-06-22T06:03:21;22.60;60.60
70079;DHT22;57451;52.496;13.456;2023-06-22T06:05:48;22.60;60.90
70079;DHT22;57451;52.496;13.456;2023-06-22T06:08:16;22.60;60.70
70079;DHT22;57451;52.496;13.456;2023-06-22T06:10:43;22.60;60.80
70079;DHT22;57451;52.496;13.456;2023-06-22T06:13:11;22.70;60.50
70079;DHT22;57451;52.496;13.456;2023-06-22T06:15:38;22.70;60.60
70079;DHT22;57451;52.496;13.456;2023-06-22T06:18:05;22.80;60.20
70079;DHT22;57451;52.496;13.456;2023-06-22T06:21:01;22.80;60.10
70079;DHT22;57451;52.496;13.456;2023-06-22T06:23:28;22.90;60.00
70079;DHT22;57451;52.496;13.456;2023-06-22T06:25:56;22.80;60.20
70079;DHT22;57451;52.496;13.456;2023-06-22T06:28:24;22.90;60.10
70079;DHT22;57451;52.496;13.456;2023-06-22T06:30:52;23.00;59.80
70079;DHT22;57451;52.496;13.456;2023-06-22T06:33:20;23.00;59.60
70079;DHT22;57451;52.496;13.456;2023-06-22T06:35:51;23.10;59.70
70079;DHT22;57451;52.496;13.456;2023-06-22T06:38:20;23.10;59.10
70079;DHT22;57451;52.496;13.456;2023-06-22T06:40:47;23.20;59.60
70079;DHT22;57451;52.496;13.456;2023-06-22T06:43:47;23.20;58.50
70079;DHT22;57451;52.496;13.456;2023-06-22T06:46:15;23.20;58.10
70079;DHT22;57451;52.496;13.456;2023-06-22T06:48:42;23.30;58.50
70079;DHT22;57451;52.496;13.456;2023-06-22T06:51:10;23.40;58.70
70079;DHT22;57451;52.496;13.456;2023-06-22T06:53:39;23.40;58.10
70079;DHT22;57451;52.496;13.456;2023-06-22T06:56:06;23.50;56.90
70079;DHT22;57451;52.496;13.456;2023-06-22T07:03:10;23.50;56.20
70079;DHT22;57451;52.496;13.456;2023-06-22T07:05:38;23.60;55.40
70079;DHT22;57451;52.496;13.456;2023-06-22T07:08:06;23.60;55.10
70079;DHT22;57451;52.496;13.456;2023-06-22T07:10:35;23.60;54.60
70079;DHT22;57451;52.496;13.456;2023-06-22T07:13:08;23.60;54.80
70079;DHT22;57451;52.496;13.456;2023-06-22T07:15:35;23.60;55.10
70079;DHT22;57451;52.496;13.456;2023-06-22T07:18:03;23.60;55.60
70079;DHT22;57451;52.496;13.456;2023-06-22T07:20:30;23.70;56.10
70079;DHT22;57451;52.496;13.456;2023-06-22T07:22:59;23.80;55.90
70079;DHT22;57451;52.496;13.456;2023-06-22T07:25:26;23.80;56.10
70079;DHT22;57451;52.496;13.456;2023-06-22T07:27:59;23.90;55.90
70079;DHT22;57451;52.496;13.456;2023-06-22T07:30:28;24.00;55.20
70079;DHT22;57451;52.496;13.456;2023-06-22T07:32:57;24.10;55.10
70079;DHT22;57451;52.496;13.456;2023-06-22T07:35:25;24.20;55.10
70079;DHT22;57451;52.496;13.456;2023-06-22T07:37:53;24.30;53.70
70079;DHT22;57451;52.496;13.456;2023-06-22T07:40:22;24.40;53.50
70079;DHT22;57451;52.496;13.456;2023-06-22T07:42:50;24.50;53.00
70079;DHT22;57451;52.496;13.456;2023-06-22T07:45:20;24.60;54.00
70079;DHT22;57451;52.496;13.456;2023-06-22T07:47:48;24.70;54.20
70079;DHT22;57451;52.496;13.456;2023-06-22T07:50:16;24.80;52.60
70079;DHT22;57451;52.496;13.456;2023-06-22T07:52:43;24.80;51.70
70079;DHT22;57451;52.496;13.456;2023-06-22T07:55:11;24.90;52.40
70079;DHT22;57451;52.496;13.456;2023-06-22T07:57:39;25.00;51.80
70079;DHT22;57451;52.496;13.456;2023-06-22T08:00:09;25.00;51.50
70079;DHT22;57451;52.496;13.456;2023-06-22T08:02:58;25.10;48.90
70079;DHT22;57451;52.496;13.456;2023-06-22T08:05:26;25.20;48.90
70079;DHT22;57451;52.496;13.456;2023-06-22T08:07:55;25.20;50.30
70079;DHT22;57451;52.496;13.456;2023-06-22T08:10:23;25.30;49.60
70079;DHT22;57451;52.496;13.456;2023-06-22T08:12:51;25.30;49.10
70079;DHT22;57451;52.496;13.456;2023-06-22T08:15:19;25.30;49.80
70079;DHT22;57451;52.496;13.456;2023-06-22T08:17:47;25.40;48.50
70079;DHT22;57451;52.496;13.456;2023-06-22T08:20:15;25.40;49.20
70079;DHT22;57451;52.496;13.456;2023-06-22T08:22:43;25.50;49.30
70079;DHT22;57451;52.496;13.456;2023-06-22T08:25:11;25.50;50.10
70079;DHT22;57451;52.496;13.456;2023-06-22T08:27:38;25.50;50.00
70079;DHT22;57451;52.496;13.456;2023-06-22T08:30:07;25.60;49.00
70079;DHT22;57451;52.496;13.456;2023-06-22T08:32:35;25.60;48.80
70079;DHT22;57451;52.496;13.456;2023-06-22T08:35:03;25.60;49.80
70079;DHT22;57451;52.496;13.456;2023-06-22T08:37:31;25.60;49.30
70079;DHT22;57451;52.496;13.456;2023-06-22T08:40:04;25.60;48.40
70079;DHT22;57451;52.496;13.456;2023-06-22T08:42:40;25.60;48.90
70079;DHT22;57451;52.496;13.456;2023-06-22T08:45:09;25.70;48.80
70079;DHT22;57451;52.496;13.456;2023-06-22T08:47:36;25.70;48.90
70079;DHT22;57451;52.496;13.456;2023-06-22T08:50:05;25.80;47.70
70079;DHT22;57451;52.496;13.456;2023-06-22T08:52:34;25.80;48.20
70079;DHT22;57451;52.496;13.456;2023-06-22T08:55:02;25.80;49.20
70079;DHT22;57451;52.496;13.456;2023-06-22T08:57:29;25.90;47.50
70079;DHT22;57451;52.496;13.456;2023-06-22T08:59:57;25.90;47.50
70079;DHT22;57451;52.496;13.456;2023-06-22T09:02:26;25.90;47.00
70079;DHT22;57451;52.496;13.456;2023-06-22T09:04:58;26.00;47.50
70079;DHT22;57451;52.496;13.456;2023-06-22T09:07:25;26.00;48.00
70079;DHT22;57451;52.496;13.456;2023-06-22T09:09:57;26.10;47.20
70079;DHT22;57451;52.496;13.456;2023-06-22T09:12:26;26.10;46.80
70079;DHT22;57451;52.496;13.456;2023-06-22T09:14:54;26.20;45.80
70079;DHT22;57451;52.496;13.456;2023-06-22T09:17:21;26.20;46.10
70079;DHT22;57451;52.496;13.456;2023-06-22T09:19:49;26.30;46.10
70079;DHT22;57451;52.496;13.456;2023-06-22T09:22:16;26.30;45.80
70079;DHT22;57451;52.496;13.456;2023-06-22T09:24:44;26.30;45.40
70079;DHT22;57451;52.496;13.456;2023-06-22T09:27:13;26.40;44.80
70079;DHT22;57451;52.496;13.456;2023-06-22T09:29:40;26.40;45.90
70079;DHT22;57451;52.496;13.456;2023-06-22T09:32:08;26.50;45.60
70079;DHT22;57451;52.496;13.456;2023-06-22T09:34:36;26.50;46.60
70079;DHT22;57451;52.496;13.456;2023-06-22T09:37:03;26.50;46.00
70079;DHT22;57451;52.496;13.456;2023-06-22T09:39:31;26.60;46.60
70079;DHT22;57451;52.496;13.456;2023-06-22T09:41:59;26.60;46.40
70079;DHT22;57451;52.496;13.456;2023-06-22T09:44:28;26.70;47.10
70079;DHT22;57451;52.496;13.456;2023-06-22T09:46:55;26.70;46.50
70079;DHT22;57451;52.496;13.456;2023-06-22T09:49:23;26.70;46.90
70079;DHT22;57451;52.496;13.456;2023-06-22T09:52:11;26.80;46.60
70079;DHT22;57451;52.496;13.456;2023-06-22T09:54:38;26.80;46.50
70079;DHT22;57451;52.496;13.456;2023-06-22T09:57:06;26.80;46.60
70079;DHT22;57451;52.496;13.456;2023-06-22T09:59:35;26.90;47.00
70079;DHT22;57451;52.496;13.456;2023-06-22T10:02:03;26.90;46.60
70079;DHT22;57451;52.496;13.456;2023-06-22T10:04:30;26.90;47.40
70079;DHT22;57451;52.496;13.456;2023-06-22T10:06:58;27.00;46.30
70079;DHT22;57451;52.496;13.456;2023-06-22T10:09:25;27.10;47.00
70079;DHT22;57451;52.496;13.456;2023-06-22T10:11:53;27.20;46.80
70079;DHT22;57451;52.496;13.456;2023-06-22T10:14:21;27.20;46.90
70079;DHT22;57451;52.496;13.456;2023-06-22T10:16:51;27.30;45.90
70079;DHT22;57451;52.496;13.456;2023-06-22T10:19:19;27.30;45.70
70079;DHT22;57451;52.496;13.456;2023-06-22T10:21:46;27.30;46.00
70079;DHT22;57451;52.496;13.456;2023-06-22T10:24:14;27.40;47.40
70079;DHT22;57451;52.496;13.456;2023-06-22T10:26:41;27.50;47.20
70079;DHT22;57451;52.496;13.456;2023-06-22T10:29:09;27.60;46.90
70079;DHT22;57451;52.496;13.456;2023-06-22T10:31:44;27.70;45.90
70079;DHT22;57451;52.496;13.456;2023-06-22T10:34:12;27.70;44.80
70079;DHT22;57451;52.496;13.456;2023-06-22T10:36:40;27.80;45.90
70079;DHT22;57451;52.496;13.456;2023-06-22T10:39:07;27.80;44.50
70079;DHT22;57451;52.496;13.456;2023-06-22T10:41:35;27.90;44.40
70079;DHT22;57451;52.496;13.456;2023-06-22T10:44:02;27.90;45.30
70079;DHT22;57451;52.496;13.456;2023-06-22T10:46:30;28.00;43.90
70079;DHT22;57451;52.496;13.456;2023-06-22T10:48:57;28.00;44.10
70079;DHT22;57451;52.496;13.456;2023-06-22T10:51:27;28.00;43.90
70079;DHT22;57451;52.496;13.456;2023-06-22T10:53:55;28.10;43.90
70079;DHT22;57451;52.496;13.456;2023-06-22T10:56:23;28.20;45.30
70079;DHT22;57451;52.496;13.456;2023-06-22T10:58:50;28.20;44.00
70079;DHT22;57451;52.496;13.456;2023-06-22T11:01:17;28.30;44.20
70079;DHT22;57451;52.496;13.456;2023-06-22T11:04:02;28.40;44.10
70079;DHT22;57451;52.496;13.456;2023-06-22T11:06:32;28.50;43.50
70079;DHT22;57451;52.496;13.456;2023-06-22T11:08:59;28.60;44.20
70079;DHT22;57451;52.496;13.456;2023-06-22T11:11:30;28.70;43.60
70079;DHT22;57451;52.496;13.456;2023-06-22T11:13:57;28.70;41.90
70079;DHT22;57451;52.496;13.456;2023-06-22T11:16:25;28.80;41.70
70079;DHT22;57451;52.496;13.456;2023-06-22T11:18:52;28.80;41.40
70079;DHT22;57451;52.496;13.456;2023-06-22T11:21:20;28.90;42.30
70079;DHT22;57451;52.496;13.456;2023-06-22T11:23:49;28.90;42.20
70079;DHT22;57451;52.496;13.456;2023-06-22T11:26:17;28.90;43.00
70079;DHT22;57451;52.496;13.456;2023-06-22T11:28:46;28.90;43.00
70079;DHT22;57451;52.496;13.456;2023-06-22T11:31:14;28.90;42.80
70079;DHT22;57451;52.496;13.456;2023-06-22T11:33:52;29.00;42.60
70079;DHT22;57451;52.496;13.456;2023-06-22T11:36:20;29.00;43.10
70079;DHT22;57451;52.496;13.456;2023-06-22T11:38:49;29.10;42.10
70079;DHT22;57451;52.496;13.456;2023-06-22T11:41:17;29.10;40.90
70079;DHT22;57451;52.496;13.456;2023-06-22T11:43:45;29.10;40.90
70079;DHT22;57451;52.496;13.456;2023-06-22T11:46:12;29.10;41.20
70079;DHT22;57451;52.496;13.456;2023-06-22T11:48:40;29.20;41.30
70079;DHT22;57451;52.496;13.456;2023-06-22T11:51:07;29.10;40.40
70079;DHT22;57451;52.496;13.456;2023-06-22T11:53:35;29.20;41.10
70079;DHT22;57451;52.496;13.456;2023-06-22T11:56:04;29.20;40.90
70079;DHT22;57451;52.496;13.456;2023-06-22T11:58:33;29.30;40.80
70079;DHT22;57451;52.496;13.456;2023-06-22T12:01:01;29.40;40.80
70079;DHT22;57451;52.496;13.456;2023-06-22T12:03:28;29.40;41.30
70079;DHT22;57451;52.496;13.456;2023-06-22T12:05:56;29.50;40.70
70079;DHT22;57451;52.496;13.456;2023-06-22T12:08:24;29.60;40.80
70079;DHT22;57451;52.496;13.456;2023-06-22T12:10:51;29.60;41.40
70079;DHT22;57451;52.496;13.456;2023-06-22T12:13:22;29.70;40.50
70079;DHT22;57451;52.496;13.456;2023-06-22T12:15:50;29.70;41.30
70079;DHT22;57451;52.496;13.456;2023-06-22T12:18:19;29.80;41.20
70079;DHT22;57451;52.496;13.456;2023-06-22T12:20:48;29.90;41.20
70079;DHT22;57451;52.496;13.456;2023-06-22T12:23:16;29.90;40.20
70079;DHT22;57451;52.496;13.456;2023-06-22T12:25:44;30.00;41.10
70079;DHT22;57451;52.496;13.456;2023-06-22T12:28:12;30.00;40.20
70079;DHT22;57451;52.496;13.456;2023-06-22T12:30:41;30.10;39.90
70079;DHT22;57451;52.496;13.456;2023-06-22T12:33:08;30.10;40.60
70079;DHT22;57451;52.496;13.456;2023-06-22T12:35:36;30.20;39.50
70079;DHT22;57451;52.496;13.456;2023-06-22T12:38:03;30.10;38.90
70079;DHT22;57451;52.496;13.456;2023-06-22T12:40:33;30.10;39.30
70079;DHT22;57451;52.496;13.456;2023-06-22T12:43:01;30.20;40.20
70079;DHT22;57451;52.496;13.456;2023-06-22T12:45:29;30.20;40.40
70079;DHT22;57451;52.496;13.456;2023-06-22T12:48:02;30.30;41.20
70079;DHT22;57451;52.496;13.456;2023-06-22T12:50:30;30.40;40.30
70079;DHT22;57451;52.496;13.456;2023-06-22T12:52:58;30.40;40.90
70079;DHT22;57451;52.496;13.456;2023-06-22T12:55:25;30.50;40.90
70079;DHT22;57451;52.496;13.456;2023-06-22T12:57:56;30.60;38.90
70079;DHT22;57451;52.496;13.456;2023-06-22T13:00:23;30.50;39.60
70079;DHT22;57451;52.496;13.456;2023-06-22T13:02:51;30.60;40.10
70079;DHT22;57451;52.496;13.456;2023-06-22T13:05:22;30.70;40.80
70079;DHT22;57451;52.496;13.456;2023-06-22T13:07:50;30.70;40.90
70079;DHT22;57451;52.496;13.456;2023-06-22T13:10:18;30.80;40.70
70079;DHT22;57451;52.496;13.456;2023-06-22T13:12:45;30.70;39.90
70079;DHT22;57451;52.496;13.456;2023-06-22T13:15:13;30.70;39.70
70079;DHT22;57451;52.496;13.456;2023-06-22T13:17:40;30.60;40.00
70079;DHT22;57451;52.496;13.456;2023-06-22T13:20:08;30.60;39.80
70079;DHT22;57451;52.496;13.456;2023-06-22T13:22:38;30.60;39.50
70079;DHT22;57451;52.496;13.456;2023-06-22T13:25:10;30.60;39.40
70079;DHT22;57451;52.496;13.456;2023-06-22T13:27:40;30.50;39.80
70079;DHT22;57451;52.496;13.456;2023-06-22T13:30:08;30.50;40.90
70079;DHT22;57451;52.496;13.456;2023-06-22T13:32:41;30.50;39.50
70079;DHT22;57451;52.496;13.456;2023-06-22T13:35:11;30.50;40.00
70079;DHT22;57451;52.496;13.456;2023-06-22T13:37:40;30.50;39.20
70079;DHT22;57451;52.496;13.456;2023-06-22T13:40:08;30.50;39.10
70079;DHT22;57451;52.496;13.456;2023-06-22T13:42:36;30.50;40.10
70079;DHT22;57451;52.496;13.456;2023-06-22T13:45:04;30.50;40.10
70079;DHT22;57451;52.496;13.456;2023-06-22T13:47:32;30.50;39.50
70079;DHT22;57451;52.496;13.456;2023-06-22T13:50:00;30.40;38.80
70079;DHT22;57451;52.496;13.456;2023-06-22T13:52:27;30.40;40.60
70079;DHT22;57451;52.496;13.456;2023-06-22T13:54:56;30.40;40.50
70079;DHT22;57451;52.496;13.456;2023-06-22T13:57:23;30.40;40.70
70079;DHT22;57451;52.496;13.456;2023-06-22T13:59:51;30.50;40.90
70079;DHT22;57451;52.496;13.456;2023-06-22T14:02:19;30.50;40.20
70079;DHT22;57451;52.496;13.456;2023-06-22T14:04:46;30.60;40.70
70079;DHT22;57451;52.496;13.456;2023-06-22T14:07:14;30.60;40.90
70079;DHT22;57451;52.496;13.456;2023-06-22T14:09:41;30.60;40.80
70079;DHT22;57451;52.496;13.456;2023-06-22T14:12:11;30.70;40.80
70079;DHT22;57451;52.496;13.456;2023-06-22T14:14:39;30.70;39.80
70079;DHT22;57451;52.496;13.456;2023-06-22T14:17:06;30.70;40.20
70079;DHT22;57451;52.496;13.456;2023-06-22T14:19:34;30.70;40.00
70079;DHT22;57451;52.496;13.456;2023-06-22T14:22:01;30.70;40.60
70079;DHT22;57451;52.496;13.456;2023-06-22T14:24:29;30.80;40.50
70079;DHT22;57451;52.496;13.456;2023-06-22T14:26:57;30.80;40.20
70079;DHT22;57451;52.496;13.456;2023-06-22T14:29:26;30.90;39.50
70079;DHT22;57451;52.496;13.456;2023-06-22T14:31:54;30.90;40.20
70079;DHT22;57451;52.496;13.456;2023-06-22T14:34:21;30.90;39.20
70079;DHT22;57451;52.496;13.456;2023-06-22T14:36:49;30.90;40.30
70079;DHT22;57451;52.496;13.456;2023-06-22T14:39:16;30.90;39.30
70079;DHT22;57451;52.496;13.456;2023-06-22T14:41:43;30.90;39.60
70079;DHT22;57451;52.496;13.456;2023-06-22T14:44:11;30.90;40.40
70079;DHT22;57451;52.496;13.456;2023-06-22T14:46:40;30.90;40.20
70079;DHT22;57451;52.496;13.456;2023-06-22T14:49:07;30.90;38.80
70079;DHT22;57451;52.496;13.456;2023-06-22T14:51:35;30.90;40.10
70079;DHT22;57451;52.496;13.456;2023-06-22T14:54:02;30.90;39.90
70079;DHT22;57451;52.496;13.456;2023-06-22T14:56:30;30.90;39.90
70079;DHT22;57451;52.496;13.456;2023-06-22T14:58:59;30.90;40.70
70079;DHT22;57451;52.496;13.456;2023-06-22T15:01:26;30.90;40.60
70079;DHT22;57451;52.496;13.456;2023-06-22T15:03:55;30.90;39.70
70079;DHT22;57451;52.496;13.456;2023-06-22T15:06:23;31.00;40.60
70079;DHT22;57451;52.496;13.456;2023-06-22T15:08:50;31.00;39.50
70079;DHT22;57451;52.496;13.456;2023-06-22T15:11:18;30.90;39.60
70079;DHT22;57451;52.496;13.456;2023-06-22T15:13:45;30.90;40.30
70079;DHT22;57451;52.496;13.456;2023-06-22T15:16:13;30.90;39.80
70079;DHT22;57451;52.496;13.456;2023-06-22T15:18:40;30.90;40.30
70079;DHT22;57451;52.496;13.456;2023-06-22T15:21:09;30.90;39.80
70079;DHT22;57451;52.496;13.456;2023-06-22T15:23:37;30.90;39.90
70079;DHT22;57451;52.496;13.456;2023-06-22T15:26:04;30.90;40.70
70079;DHT22;57451;52.496;13.456;2023-06-22T15:28:35;30.90;39.50
70079;DHT22;57451;52.496;13.456;2023-06-22T15:31:06;30.90;40.10
70079;DHT22;57451;52.496;13.456;2023-06-22T15:33:34;30.90;40.70
70079;DHT22;57451;52.496;13.456;2023-06-22T15:36:01;30.90;39.60
70079;DHT22;57451;52.496;13.456;2023-06-22T15:38:33;30.80;40.00
70079;DHT22;57451;52.496;13.456;2023-06-22T15:41:00;30.80;40.00
70079;DHT22;57451;52.496;13.456;2023-06-22T15:43:28;30.70;40.40
70079;DHT22;57451;52.496;13.456;2023-06-22T15:45:56;30.70;40.80
70079;DHT22;57451;52.496;13.456;2023-06-22T15:48:23;30.70;40.80
70079;DHT22;57451;52.496;13.456;2023-06-22T15:50:51;30.60;40.50
70079;DHT22;57451;52.496;13.456;2023-06-22T15:53:18;30.60;40.90
70079;DHT22;57451;52.496;13.456;2023-06-22T15:55:47;30.60;41.20
70079;DHT22;57451;52.496;13.456;2023-06-22T15:58:14;30.60;40.60
70079;DHT22;57451;52.496;13.456;2023-06-22T16:00:44;30.60;40.90
70079;DHT22;57451;52.496;13.456;2023-06-22T16:03:12;30.50;40.10
70079;DHT22;57451;52.496;13.456;2023-06-22T16:05:42;30.40;40.40
70079;DHT22;57451;52.496;13.456;2023-06-22T16:08:10;30.40;40.90
70079;DHT22;57451;52.496;13.456;2023-06-22T16:10:41;30.40;40.40
70079;DHT22;57451;52.496;13.456;2023-06-22T16:13:09;30.30;40.90
70079;DHT22;57451;52.496;13.456;2023-06-22T16:15:37;30.30;40.90
70079;DHT22;57451;52.496;13.456;2023-06-22T16:18:04;30.20;41.10
70079;DHT22;57451;52.496;13.456;2023-06-22T16:20:32;30.20;41.50
70079;DHT22;57451;52.496;13.456;2023-06-22T16:23:00;30.10;41.20
70079;DHT22;57451;52.496;13.456;2023-06-22T16:25:27;30.10;40.50
70079;DHT22;57451;52.496;13.456;2023-06-22T16:27:55;30.00;41.10
70079;DHT22;57451;52.496;13.456;2023-06-22T16:30:23;29.90;41.30
70079;DHT22;57451;52.496;13.456;2023-06-22T16:32:52;29.90;41.40
70079;DHT22;57451;52.496;13.456;2023-06-22T16:35:21;29.90;41.20
70079;DHT22;57451;52.496;13.456;2023-06-22T16:37:48;29.80;41.00
70079;DHT22;57451;52.496;13.456;2023-06-22T16:40:16;29.80;41.70
70079;DHT22;57451;52.496;13.456;2023-06-22T16:42:47;29.80;41.90
70079;DHT22;57451;52.496;13.456;2023-06-22T16:45:19;29.70;42.60
70079;DHT22;57451;52.496;13.456;2023-06-22T16:47:48;29.70;42.10
70079;DHT22;57451;52.496;13.456;2023-06-22T16:50:17;29.70;42.10
70079;DHT22;57451;52.496;13.456;2023-06-22T16:52:44;29.60;42.20
70079;DHT22;57451;52.496;13.456;2023-06-22T16:55:14;29.60;41.80
70079;DHT22;57451;52.496;13.456;2023-06-22T16:57:42;29.50;42.00
70079;DHT22;57451;52.496;13.456;2023-06-22T17:00:10;29.40;42.40
70079;DHT22;57451;52.496;13.456;2023-06-22T17:02:43;29.40;42.80
70079;DHT22;57451;52.496;13.456;2023-06-22T17:05:13;29.30;42.30
70079;DHT22;57451;52.496;13.456;2023-06-22T17:07:45;29.30;42.40
70079;DHT22;57451;52.496;13.456;2023-06-22T17:10:15;29.20;42.20
70079;DHT22;57451;52.496;13.456;2023-06-22T17:12:43;29.00;42.70
70079;DHT22;57451;52.496;13.456;2023-06-22T17:15:12;29.00;42.70
70079;DHT22;57451;52.496;13.456;2023-06-22T17:17:39;28.90;42.70
70079;DHT22;57451;52.496;13.456;2023-06-22T17:20:08;28.90;43.10
70079;DHT22;57451;52.496;13.456;2023-06-22T17:22:37;28.80;43.30
70079;DHT22;57451;52.496;13.456;2023-06-22T17:25:08;28.70;43.00